NTAA/PPT METAR and TAF weather

Enter ICAO airport designator
Station Type Date Time Source
NTAA METAR 2019/04/25 10:00 UTC NOAA

NTAA 251000Z 12003KT 9999 FEW020 SCT300 26/24 Q1011 NOSIG


Station Type Date Time Source
NTAA Decoded METAR 2019/04/25 10:00 UTC NOAA

Tahiti-Faaa, French Polynesia (NTAA) 17-33S 149-37W 2M
Apr 25, 2019 - 06:00 AM EDT / 2019.04.25 1000 UTC
Wind: from the ESE (120 degrees) at 3 MPH (3 KT):0
Visibility: greater than 7 mile(s):0
Sky conditions: partly cloudy
Temperature: 78 F (26 C)
Dew Point: 75 F (24 C)
Relative Humidity: 88%
Pressure (altimeter): 29.85 in. Hg (1011 hPa)
ob: NTAA 251000Z 12003KT 9999 FEW020 SCT300 26/24 Q1011 NOSIG
cycle: 10

Station Type Date Time Source
NTAA TAF 2019/04/25 06:11 UTC NOAA

TAF NTAA 250500Z 2506/2612 VRB05KT 9999 FEW020 SCT080 BKN250 PROB40
TEMPO 2511/2516 04012KT 3000 SHRA FEW015CB SCT016 BKN060 PROB40
TEMPO 2604/2612 22012KT 3000 SHRA FEW015CB SCT016 BKN050

Example: see airport list